Airfield :
LOGIN :

Register | Disclaimer

   EN    FR    IT 

 










Legend :    VFR   Marginal VFR   IFR   Intensive IFR   Very Intensive IFR
Visi :
Ceiling :
>= 8 km
>= 3000ft
5 to 8 km
1000 to 3000 ft
1500m to 5 km
500 to 1000 ft
800 to 1500m
200 to 500 ft
< 800m
< 200 ft
Symbols :   Thunderstorms  Fog  Heavy snow  Heavy precipitations  Wind > 20 kt
SIGMETs :     Misc.  Thunderstorms  Icing  Turbulence  Mountain Waves  Volcanic Ashes







- Airport Elevation : 257 ft
- IATA code : MAN
- Download approach charts


EGCC - Manchester

CURRENT METAR :
  • 181750Z AUTO VRB03KT 9999 OVC014 07/06 Q1018 TEMPO BKN015

EXPIRED METARs :
  • 181720Z AUTO VRB03KT 9999 OVC012 07/05 Q1018 TEMPO BKN015
  • 181650Z AUTO VRB03KT 9999 OVC012 08/05 Q1019 TEMPO BKN015
  • 181620Z AUTO 19004KT 140V240 9999 OVC013 08/05 Q1019 TEMPO BKN015
  • 181550Z 19005KT 150V220 9999 BKN013 08/05 Q1019 TEMPO BKN015
  • 181520Z AUTO 19005KT 150V220 9999 OVC013 08/05 Q1019 TEMPO BKN015

TAF TAF EGCC
Valid from the 18 at 18:00 until the 20 at 00:00 UTC


181703Z 1818/1924 17006KT 9999 BKN015
BECMG 1818/1821 6000 -RA BKN007
BECMG 1821/1824 3000 -RADZ BKN004
TEMPO 1900/1909 RADZ
PROB30
TEMPO 1906/1912 0300 FG BKN001
BECMG 1909/1912 30010KT
TEMPO 1912/1921 9999 NSW SCT015
ATIS : +44 161 499 2324
No reported NOTAMs for that airfield.



MET'MAP, your aeronautical weather chart ! - Copyright ORBIFLY December 2007 - Disclaimer

ORBIFLY MET'MAP TEAM :

Programming & Development : Alexandra Zaïnal
Concept & Development : Baudouin d'Aumeries
Co-Development & Prog : Marc-Olivier Méhu
Technical & hardware support : Manuel Goepfert

Contact : metmap@orbifly.com




SOURCES & CREDITS :

   NOAA